sensor_id;sensor_type;location;lat;lon;timestamp;P1;durP1;ratioP1;P2;durP2;ratioP2
47431;SDS011;33183;52.290;6.144;2023-01-25T00:01:53;5.45;;;4.05;;
47431;SDS011;33183;52.290;6.144;2023-01-25T00:04:19;6.72;;;4.18;;
47431;SDS011;33183;52.290;6.144;2023-01-25T00:06:45;6.80;;;4.40;;
47431;SDS011;33183;52.290;6.144;2023-01-25T00:09:11;4.57;;;3.97;;
47431;SDS011;33183;52.290;6.144;2023-01-25T00:11:37;5.72;;;3.97;;
47431;SDS011;33183;52.290;6.144;2023-01-25T00:14:02;5.65;;;3.80;;
47431;SDS011;33183;52.290;6.144;2023-01-25T00:16:28;6.32;;;4.13;;
47431;SDS011;33183;52.290;6.144;2023-01-25T00:18:54;5.35;;;3.88;;
47431;SDS011;33183;52.290;6.144;2023-01-25T00:21:20;5.50;;;3.65;;
47431;SDS011;33183;52.290;6.144;2023-01-25T00:23:46;5.13;;;3.58;;
47431;SDS011;33183;52.290;6.144;2023-01-25T00:26:12;4.70;;;3.47;;
47431;SDS011;33183;52.290;6.144;2023-01-25T00:28:38;4.63;;;3.92;;
47431;SDS011;33183;52.290;6.144;2023-01-25T00:31:04;4.93;;;3.72;;
47431;SDS011;33183;52.290;6.144;2023-01-25T00:36:02;4.90;;;3.88;;
47431;SDS011;33183;52.290;6.144;2023-01-25T00:39:02;4.65;;;3.55;;
47431;SDS011;33183;52.290;6.144;2023-01-25T00:41:28;4.80;;;4.28;;
47431;SDS011;33183;52.290;6.144;2023-01-25T00:43:53;4.68;;;3.83;;
47431;SDS011;33183;52.290;6.144;2023-01-25T00:46:19;5.05;;;3.80;;
47431;SDS011;33183;52.290;6.144;2023-01-25T00:48:44;4.45;;;3.63;;
47431;SDS011;33183;52.290;6.144;2023-01-25T00:51:10;5.70;;;3.58;;
47431;SDS011;33183;52.290;6.144;2023-01-25T00:53:35;5.35;;;3.55;;
47431;SDS011;33183;52.290;6.144;2023-01-25T00:56:01;4.95;;;3.70;;
47431;SDS011;33183;52.290;6.144;2023-01-25T00:58:26;4.22;;;3.00;;
47431;SDS011;33183;52.290;6.144;2023-01-25T01:00:52;4.70;;;3.45;;
47431;SDS011;33183;52.290;6.144;2023-01-25T01:03:17;7.22;;;3.92;;
47431;SDS011;33183;52.290;6.144;2023-01-25T01:05:43;4.15;;;3.30;;
47431;SDS011;33183;52.290;6.144;2023-01-25T01:08:08;4.35;;;3.42;;
47431;SDS011;33183;52.290;6.144;2023-01-25T01:10:33;5.30;;;3.50;;
47431;SDS011;33183;52.290;6.144;2023-01-25T01:12:58;4.32;;;3.28;;
47431;SDS011;33183;52.290;6.144;2023-01-25T01:15:24;3.72;;;2.95;;
47431;SDS011;33183;52.290;6.144;2023-01-25T01:17:49;3.60;;;3.08;;
47431;SDS011;33183;52.290;6.144;2023-01-25T01:20:14;5.03;;;3.58;;
47431;SDS011;33183;52.290;6.144;2023-01-25T01:22:40;4.35;;;2.97;;
47431;SDS011;33183;52.290;6.144;2023-01-25T01:25:05;4.55;;;2.97;;
47431;SDS011;33183;52.290;6.144;2023-01-25T01:27:31;4.47;;;3.75;;
47431;SDS011;33183;52.290;6.144;2023-01-25T01:29:57;3.90;;;2.97;;
47431;SDS011;33183;52.290;6.144;2023-01-25T01:32:22;5.22;;;3.50;;
47431;SDS011;33183;52.290;6.144;2023-01-25T01:34:47;5.07;;;3.40;;
47431;SDS011;33183;52.290;6.144;2023-01-25T01:37:13;3.83;;;3.35;;
47431;SDS011;33183;52.290;6.144;2023-01-25T01:39:38;5.43;;;3.78;;
47431;SDS011;33183;52.290;6.144;2023-01-25T01:42:03;4.38;;;3.20;;
47431;SDS011;33183;52.290;6.144;2023-01-25T01:44:48;4.35;;;3.33;;
47431;SDS011;33183;52.290;6.144;2023-01-25T01:47:27;3.53;;;3.22;;
47431;SDS011;33183;52.290;6.144;2023-01-25T01:49:54;4.20;;;2.92;;
47431;SDS011;33183;52.290;6.144;2023-01-25T01:52:27;3.50;;;2.88;;
47431;SDS011;33183;52.290;6.144;2023-01-25T01:54:56;4.22;;;3.33;;
47431;SDS011;33183;52.290;6.144;2023-01-25T01:57:42;3.95;;;3.38;;
47431;SDS011;33183;52.290;6.144;2023-01-25T02:02:39;4.05;;;3.17;;
47431;SDS011;33183;52.290;6.144;2023-01-25T02:05:06;4.05;;;2.90;;
47431;SDS011;33183;52.290;6.144;2023-01-25T02:10:01;2.90;;;2.60;;
47431;SDS011;33183;52.290;6.144;2023-01-25T02:12:28;3.00;;;2.70;;
47431;SDS011;33183;52.290;6.144;2023-01-25T02:14:54;3.42;;;2.83;;
47431;SDS011;33183;52.290;6.144;2023-01-25T02:17:27;3.28;;;2.97;;
47431;SDS011;33183;52.290;6.144;2023-01-25T02:22:40;4.07;;;3.17;;
47431;SDS011;33183;52.290;6.144;2023-01-25T02:25:10;3.67;;;2.60;;
47431;SDS011;33183;52.290;6.144;2023-01-25T02:27:38;3.88;;;2.72;;
47431;SDS011;33183;52.290;6.144;2023-01-25T02:30:06;4.07;;;3.40;;
47431;SDS011;33183;52.290;6.144;2023-01-25T02:32:32;3.20;;;2.83;;
47431;SDS011;33183;52.290;6.144;2023-01-25T02:34:57;4.25;;;3.15;;
47431;SDS011;33183;52.290;6.144;2023-01-25T02:37:23;3.90;;;3.50;;
47431;SDS011;33183;52.290;6.144;2023-01-25T02:39:48;3.67;;;3.28;;
47431;SDS011;33183;52.290;6.144;2023-01-25T02:42:15;4.18;;;3.30;;
47431;SDS011;33183;52.290;6.144;2023-01-25T02:44:40;3.88;;;3.08;;
47431;SDS011;33183;52.290;6.144;2023-01-25T02:47:06;5.00;;;3.17;;
47431;SDS011;33183;52.290;6.144;2023-01-25T02:49:33;3.90;;;2.97;;
47431;SDS011;33183;52.290;6.144;2023-01-25T02:52:02;3.17;;;2.85;;
47431;SDS011;33183;52.290;6.144;2023-01-25T02:54:28;4.05;;;3.17;;
47431;SDS011;33183;52.290;6.144;2023-01-25T02:56:54;3.38;;;3.08;;
47431;SDS011;33183;52.290;6.144;2023-01-25T02:59:19;3.80;;;2.92;;
47431;SDS011;33183;52.290;6.144;2023-01-25T03:01:44;2.97;;;2.35;;
47431;SDS011;33183;52.290;6.144;2023-01-25T03:04:10;3.85;;;2.78;;
47431;SDS011;33183;52.290;6.144;2023-01-25T03:06:36;3.22;;;2.85;;
47431;SDS011;33183;52.290;6.144;2023-01-25T03:09:02;3.58;;;2.95;;
47431;SDS011;33183;52.290;6.144;2023-01-25T03:11:28;3.65;;;2.90;;
47431;SDS011;33183;52.290;6.144;2023-01-25T03:13:54;3.95;;;2.97;;
47431;SDS011;33183;52.290;6.144;2023-01-25T03:16:19;3.33;;;3.03;;
47431;SDS011;33183;52.290;6.144;2023-01-25T03:18:44;3.45;;;2.85;;
47431;SDS011;33183;52.290;6.144;2023-01-25T03:21:13;4.00;;;3.50;;
47431;SDS011;33183;52.290;6.144;2023-01-25T03:23:41;3.30;;;3.00;;
47431;SDS011;33183;52.290;6.144;2023-01-25T03:26:11;4.45;;;3.28;;
47431;SDS011;33183;52.290;6.144;2023-01-25T03:28:38;3.67;;;3.20;;
47431;SDS011;33183;52.290;6.144;2023-01-25T03:31:04;3.92;;;3.10;;
47431;SDS011;33183;52.290;6.144;2023-01-25T03:33:30;3.33;;;2.78;;
47431;SDS011;33183;52.290;6.144;2023-01-25T03:35:56;3.40;;;2.90;;
47431;SDS011;33183;52.290;6.144;2023-01-25T03:38:22;3.08;;;2.70;;
47431;SDS011;33183;52.290;6.144;2023-01-25T03:40:47;3.60;;;3.25;;
47431;SDS011;33183;52.290;6.144;2023-01-25T03:43:13;3.05;;;2.75;;
47431;SDS011;33183;52.290;6.144;2023-01-25T03:45:38;4.05;;;3.28;;
47431;SDS011;33183;52.290;6.144;2023-01-25T03:48:04;3.80;;;3.15;;
47431;SDS011;33183;52.290;6.144;2023-01-25T03:50:29;3.00;;;2.70;;
47431;SDS011;33183;52.290;6.144;2023-01-25T03:52:55;3.65;;;3.25;;
47431;SDS011;33183;52.290;6.144;2023-01-25T03:55:26;3.15;;;2.85;;
47431;SDS011;33183;52.290;6.144;2023-01-25T03:57:51;3.83;;;3.08;;
47431;SDS011;33183;52.290;6.144;2023-01-25T04:00:17;3.65;;;2.97;;
47431;SDS011;33183;52.290;6.144;2023-01-25T04:02:44;3.85;;;2.70;;
47431;SDS011;33183;52.290;6.144;2023-01-25T04:05:10;3.17;;;2.88;;
47431;SDS011;33183;52.290;6.144;2023-01-25T04:07:35;3.10;;;2.80;;
47431;SDS011;33183;52.290;6.144;2023-01-25T04:10:00;3.45;;;2.97;;
47431;SDS011;33183;52.290;6.144;2023-01-25T04:12:25;3.20;;;2.90;;
47431;SDS011;33183;52.290;6.144;2023-01-25T04:14:51;3.30;;;3.00;;
47431;SDS011;33183;52.290;6.144;2023-01-25T04:17:16;3.35;;;3.00;;
47431;SDS011;33183;52.290;6.144;2023-01-25T04:19:41;3.58;;;2.72;;
47431;SDS011;33183;52.290;6.144;2023-01-25T04:22:06;3.53;;;2.70;;
47431;SDS011;33183;52.290;6.144;2023-01-25T04:24:32;3.85;;;2.95;;
47431;SDS011;33183;52.290;6.144;2023-01-25T04:26:58;3.70;;;2.85;;
47431;SDS011;33183;52.290;6.144;2023-01-25T04:29:23;3.55;;;3.10;;
47431;SDS011;33183;52.290;6.144;2023-01-25T04:31:48;3.78;;;3.20;;
47431;SDS011;33183;52.290;6.144;2023-01-25T04:34:13;3.80;;;3.13;;
47431;SDS011;33183;52.290;6.144;2023-01-25T04:36:39;3.72;;;3.30;;
47431;SDS011;33183;52.290;6.144;2023-01-25T04:39:04;3.72;;;3.20;;
47431;SDS011;33183;52.290;6.144;2023-01-25T04:41:29;3.70;;;3.15;;
47431;SDS011;33183;52.290;6.144;2023-01-25T04:43:54;4.10;;;3.28;;
47431;SDS011;33183;52.290;6.144;2023-01-25T04:46:20;3.72;;;3.22;;
47431;SDS011;33183;52.290;6.144;2023-01-25T04:48:45;3.92;;;3.00;;
47431;SDS011;33183;52.290;6.144;2023-01-25T04:51:10;3.75;;;3.45;;
47431;SDS011;33183;52.290;6.144;2023-01-25T04:53:37;3.28;;;2.97;;
47431;SDS011;33183;52.290;6.144;2023-01-25T04:56:02;3.45;;;3.13;;
47431;SDS011;33183;52.290;6.144;2023-01-25T04:58:28;3.00;;;2.67;;
47431;SDS011;33183;52.290;6.144;2023-01-25T05:00:53;4.00;;;3.22;;
47431;SDS011;33183;52.290;6.144;2023-01-25T05:03:18;3.38;;;2.97;;
47431;SDS011;33183;52.290;6.144;2023-01-25T05:05:45;4.63;;;2.95;;
47431;SDS011;33183;52.290;6.144;2023-01-25T05:08:11;3.45;;;3.15;;
47431;SDS011;33183;52.290;6.144;2023-01-25T05:10:36;3.47;;;3.17;;
47431;SDS011;33183;52.290;6.144;2023-01-25T05:13:01;4.25;;;3.45;;
47431;SDS011;33183;52.290;6.144;2023-01-25T05:15:26;3.95;;;3.30;;
47431;SDS011;33183;52.290;6.144;2023-01-25T05:17:52;3.65;;;3.10;;
47431;SDS011;33183;52.290;6.144;2023-01-25T05:20:17;3.33;;;3.03;;
47431;SDS011;33183;52.290;6.144;2023-01-25T05:22:42;3.30;;;3.00;;
47431;SDS011;33183;52.290;6.144;2023-01-25T05:25:08;4.00;;;3.60;;
47431;SDS011;33183;52.290;6.144;2023-01-25T05:27:53;3.55;;;2.85;;
47431;SDS011;33183;52.290;6.144;2023-01-25T05:30:18;4.00;;;3.60;;
47431;SDS011;33183;52.290;6.144;2023-01-25T05:32:44;4.30;;;3.65;;
47431;SDS011;33183;52.290;6.144;2023-01-25T05:35:09;4.43;;;3.47;;
47431;SDS011;33183;52.290;6.144;2023-01-25T05:37:34;4.28;;;3.80;;
47431;SDS011;33183;52.290;6.144;2023-01-25T05:40:00;3.40;;;3.03;;
47431;SDS011;33183;52.290;6.144;2023-01-25T05:42:25;3.90;;;3.50;;
47431;SDS011;33183;52.290;6.144;2023-01-25T05:44:50;4.10;;;3.42;;
47431;SDS011;33183;52.290;6.144;2023-01-25T05:47:16;3.50;;;3.05;;
47431;SDS011;33183;52.290;6.144;2023-01-25T05:49:41;4.07;;;3.20;;
47431;SDS011;33183;52.290;6.144;2023-01-25T05:52:09;4.32;;;3.53;;
47431;SDS011;33183;52.290;6.144;2023-01-25T05:54:37;4.00;;;3.58;;
47431;SDS011;33183;52.290;6.144;2023-01-25T05:57:02;4.25;;;3.45;;
47431;SDS011;33183;52.290;6.144;2023-01-25T05:59:28;4.03;;;3.42;;
47431;SDS011;33183;52.290;6.144;2023-01-25T06:01:53;3.08;;;2.70;;
47431;SDS011;33183;52.290;6.144;2023-01-25T06:04:18;3.60;;;3.13;;
47431;SDS011;33183;52.290;6.144;2023-01-25T06:06:43;3.80;;;3.42;;
47431;SDS011;33183;52.290;6.144;2023-01-25T06:09:09;3.40;;;3.10;;
47431;SDS011;33183;52.290;6.144;2023-01-25T06:11:35;3.65;;;3.35;;
47431;SDS011;33183;52.290;6.144;2023-01-25T06:14:01;2.75;;;2.55;;
47431;SDS011;33183;52.290;6.144;2023-01-25T06:16:26;3.72;;;3.20;;
47431;SDS011;33183;52.290;6.144;2023-01-25T06:18:51;3.35;;;2.85;;
47431;SDS011;33183;52.290;6.144;2023-01-25T06:21:17;3.20;;;2.90;;
47431;SDS011;33183;52.290;6.144;2023-01-25T06:23:42;3.78;;;3.45;;
47431;SDS011;33183;52.290;6.144;2023-01-25T06:26:09;5.03;;;3.85;;
47431;SDS011;33183;52.290;6.144;2023-01-25T06:28:36;3.88;;;3.40;;
47431;SDS011;33183;52.290;6.144;2023-01-25T06:31:06;3.97;;;3.58;;
47431;SDS011;33183;52.290;6.144;2023-01-25T06:33:32;3.75;;;3.33;;
47431;SDS011;33183;52.290;6.144;2023-01-25T06:35:58;3.83;;;3.40;;
47431;SDS011;33183;52.290;6.144;2023-01-25T06:38:27;4.75;;;4.28;;
47431;SDS011;33183;52.290;6.144;2023-01-25T06:40:52;3.47;;;3.17;;
47431;SDS011;33183;52.290;6.144;2023-01-25T06:43:17;3.70;;;3.40;;
47431;SDS011;33183;52.290;6.144;2023-01-25T06:45:43;4.53;;;4.00;;
47431;SDS011;33183;52.290;6.144;2023-01-25T06:48:08;3.90;;;3.50;;
47431;SDS011;33183;52.290;6.144;2023-01-25T06:50:33;3.88;;;3.47;;
47431;SDS011;33183;52.290;6.144;2023-01-25T06:52:58;3.65;;;3.22;;
47431;SDS011;33183;52.290;6.144;2023-01-25T06:55:24;4.70;;;4.00;;
47431;SDS011;33183;52.290;6.144;2023-01-25T06:57:49;3.63;;;3.33;;
47431;SDS011;33183;52.290;6.144;2023-01-25T07:00:14;4.05;;;3.40;;
47431;SDS011;33183;52.290;6.144;2023-01-25T07:02:40;4.20;;;3.80;;
47431;SDS011;33183;52.290;6.144;2023-01-25T07:05:06;4.75;;;3.60;;
47431;SDS011;33183;52.290;6.144;2023-01-25T07:07:31;4.35;;;3.53;;
47431;SDS011;33183;52.290;6.144;2023-01-25T07:09:57;3.97;;;3.58;;
47431;SDS011;33183;52.290;6.144;2023-01-25T07:12:24;4.13;;;3.72;;
47431;SDS011;33183;52.290;6.144;2023-01-25T07:14:50;4.45;;;4.05;;
47431;SDS011;33183;52.290;6.144;2023-01-25T07:17:15;4.05;;;3.65;;
47431;SDS011;33183;52.290;6.144;2023-01-25T07:19:40;4.18;;;3.78;;
47431;SDS011;33183;52.290;6.144;2023-01-25T07:22:05;4.20;;;3.80;;
47431;SDS011;33183;52.290;6.144;2023-01-25T07:24:31;6.88;;;3.70;;
47431;SDS011;33183;52.290;6.144;2023-01-25T07:26:56;4.40;;;4.00;;
47431;SDS011;33183;52.290;6.144;2023-01-25T07:29:21;4.30;;;3.90;;
47431;SDS011;33183;52.290;6.144;2023-01-25T07:31:47;4.60;;;4.10;;
47431;SDS011;33183;52.290;6.144;2023-01-25T07:34:12;5.78;;;3.97;;
47431;SDS011;33183;52.290;6.144;2023-01-25T07:36:38;9.43;;;3.85;;
47431;SDS011;33183;52.290;6.144;2023-01-25T07:39:03;4.43;;;3.78;;
47431;SDS011;33183;52.290;6.144;2023-01-25T07:41:29;4.38;;;3.78;;
47431;SDS011;33183;52.290;6.144;2023-01-25T07:43:54;5.18;;;3.70;;
47431;SDS011;33183;52.290;6.144;2023-01-25T07:46:20;4.13;;;3.72;;
47431;SDS011;33183;52.290;6.144;2023-01-25T07:48:46;7.22;;;3.70;;
47431;SDS011;33183;52.290;6.144;2023-01-25T07:51:13;4.32;;;3.78;;
47431;SDS011;33183;52.290;6.144;2023-01-25T07:53:48;4.68;;;3.90;;
47431;SDS011;33183;52.290;6.144;2023-01-25T07:56:21;4.70;;;4.07;;
47431;SDS011;33183;52.290;6.144;2023-01-25T07:58:47;4.60;;;3.92;;
47431;SDS011;33183;52.290;6.144;2023-01-25T08:01:13;4.35;;;3.90;;
47431;SDS011;33183;52.290;6.144;2023-01-25T08:03:39;4.63;;;4.00;;
47431;SDS011;33183;52.290;6.144;2023-01-25T08:06:05;4.25;;;3.85;;
47431;SDS011;33183;52.290;6.144;2023-01-25T08:08:31;4.85;;;3.78;;
47431;SDS011;33183;52.290;6.144;2023-01-25T08:10:59;4.72;;;4.10;;
47431;SDS011;33183;52.290;6.144;2023-01-25T08:13:25;4.57;;;3.80;;
47431;SDS011;33183;52.290;6.144;2023-01-25T08:15:53;4.18;;;3.60;;
47431;SDS011;33183;52.290;6.144;2023-01-25T08:18:19;4.30;;;3.30;;
47431;SDS011;33183;52.290;6.144;2023-01-25T08:20:44;5.68;;;3.95;;
47431;SDS011;33183;52.290;6.144;2023-01-25T08:23:10;4.35;;;3.70;;
47431;SDS011;33183;52.290;6.144;2023-01-25T08:25:35;4.35;;;3.95;;
47431;SDS011;33183;52.290;6.144;2023-01-25T08:28:00;4.38;;;3.85;;
47431;SDS011;33183;52.290;6.144;2023-01-25T08:30:25;6.85;;;4.22;;
47431;SDS011;33183;52.290;6.144;2023-01-25T08:32:50;5.40;;;4.30;;
47431;SDS011;33183;52.290;6.144;2023-01-25T08:35:16;4.65;;;3.70;;
47431;SDS011;33183;52.290;6.144;2023-01-25T08:37:41;5.32;;;3.90;;
47431;SDS011;33183;52.290;6.144;2023-01-25T08:40:06;4.38;;;3.97;;
47431;SDS011;33183;52.290;6.144;2023-01-25T08:42:32;4.65;;;4.05;;
47431;SDS011;33183;52.290;6.144;2023-01-25T08:44:57;5.40;;;4.55;;
47431;SDS011;33183;52.290;6.144;2023-01-25T08:47:23;5.00;;;4.50;;
47431;SDS011;33183;52.290;6.144;2023-01-25T08:49:48;5.00;;;4.22;;
47431;SDS011;33183;52.290;6.144;2023-01-25T08:52:15;5.38;;;4.10;;
47431;SDS011;33183;52.290;6.144;2023-01-25T08:54:40;4.78;;;4.30;;
47431;SDS011;33183;52.290;6.144;2023-01-25T08:57:08;4.97;;;4.43;;
47431;SDS011;33183;52.290;6.144;2023-01-25T08:59:33;5.70;;;4.43;;
47431;SDS011;33183;52.290;6.144;2023-01-25T09:01:58;4.65;;;4.20;;
47431;SDS011;33183;52.290;6.144;2023-01-25T09:04:24;4.22;;;3.83;;
47431;SDS011;33183;52.290;6.144;2023-01-25T09:06:52;6.33;;;5.20;;
47431;SDS011;33183;52.290;6.144;2023-01-25T09:09:17;5.30;;;4.68;;
47431;SDS011;33183;52.290;6.144;2023-01-25T09:11:43;5.13;;;4.63;;
47431;SDS011;33183;52.290;6.144;2023-01-25T09:14:08;6.15;;;4.82;;
47431;SDS011;33183;52.290;6.144;2023-01-25T09:16:33;6.70;;;5.25;;
47431;SDS011;33183;52.290;6.144;2023-01-25T09:19:00;5.90;;;4.80;;
47431;SDS011;33183;52.290;6.144;2023-01-25T09:21:27;5.68;;;5.03;;
47431;SDS011;33183;52.290;6.144;2023-01-25T09:23:52;5.18;;;4.68;;
47431;SDS011;33183;52.290;6.144;2023-01-25T09:26:18;5.40;;;4.90;;
47431;SDS011;33183;52.290;6.144;2023-01-25T09:28:47;7.10;;;5.70;;
47431;SDS011;33183;52.290;6.144;2023-01-25T09:31:14;6.03;;;5.47;;
47431;SDS011;33183;52.290;6.144;2023-01-25T09:33:40;5.72;;;5.15;;
47431;SDS011;33183;52.290;6.144;2023-01-25T09:36:06;5.75;;;5.10;;
47431;SDS011;33183;52.290;6.144;2023-01-25T09:38:31;5.55;;;5.05;;
47431;SDS011;33183;52.290;6.144;2023-01-25T09:43:41;6.18;;;5.55;;
47431;SDS011;33183;52.290;6.144;2023-01-25T09:47:01;5.88;;;5.10;;
47431;SDS011;33183;52.290;6.144;2023-01-25T09:54:48;5.38;;;4.88;;
47431;SDS011;33183;52.290;6.144;2023-01-25T09:57:21;5.65;;;5.15;;
47431;SDS011;33183;52.290;6.144;2023-01-25T09:59:51;5.55;;;5.05;;
47431;SDS011;33183;52.290;6.144;2023-01-25T10:05:11;5.68;;;5.10;;
47431;SDS011;33183;52.290;6.144;2023-01-25T10:12:53;6.43;;;5.82;;
47431;SDS011;33183;52.290;6.144;2023-01-25T10:15:20;5.63;;;5.03;;
47431;SDS011;33183;52.290;6.144;2023-01-25T10:17:55;6.05;;;5.45;;
47431;SDS011;33183;52.290;6.144;2023-01-25T10:20:34;6.13;;;5.53;;
47431;SDS011;33183;52.290;6.144;2023-01-25T10:23:18;5.50;;;5.00;;
47431;SDS011;33183;52.290;6.144;2023-01-25T10:25:58;6.57;;;5.55;;
47431;SDS011;33183;52.290;6.144;2023-01-25T10:33:20;7.32;;;5.70;;
47431;SDS011;33183;52.290;6.144;2023-01-25T10:35:46;5.95;;;5.35;;
47431;SDS011;33183;52.290;6.144;2023-01-25T10:38:22;6.03;;;5.18;;
47431;SDS011;33183;52.290;6.144;2023-01-25T10:40:59;12.73;;;5.53;;
47431;SDS011;33183;52.290;6.144;2023-01-25T10:43:26;6.72;;;5.80;;
47431;SDS011;33183;52.290;6.144;2023-01-25T10:45:52;6.10;;;5.22;;
47431;SDS011;33183;52.290;6.144;2023-01-25T10:48:19;5.55;;;5.05;;
47431;SDS011;33183;52.290;6.144;2023-01-25T10:50:48;6.38;;;5.68;;
47431;SDS011;33183;52.290;6.144;2023-01-25T10:58:36;6.00;;;5.38;;
47431;SDS011;33183;52.290;6.144;2023-01-25T11:03:58;5.35;;;4.82;;
47431;SDS011;33183;52.290;6.144;2023-01-25T11:06:31;6.25;;;5.13;;
47431;SDS011;33183;52.290;6.144;2023-01-25T11:09:28;5.90;;;5.30;;
47431;SDS011;33183;52.290;6.144;2023-01-25T11:11:53;5.78;;;5.28;;
47431;SDS011;33183;52.290;6.144;2023-01-25T11:14:20;6.13;;;5.28;;
47431;SDS011;33183;52.290;6.144;2023-01-25T11:16:47;5.82;;;5.32;;
47431;SDS011;33183;52.290;6.144;2023-01-25T11:19:27;6.28;;;5.40;;
47431;SDS011;33183;52.290;6.144;2023-01-25T11:21:59;6.07;;;5.47;;
47431;SDS011;33183;52.290;6.144;2023-01-25T11:24:27;5.60;;;5.10;;
47431;SDS011;33183;52.290;6.144;2023-01-25T11:27:29;6.18;;;5.40;;
47431;SDS011;33183;52.290;6.144;2023-01-25T11:32:30;6.65;;;5.93;;
47431;SDS011;33183;52.290;6.144;2023-01-25T11:34:55;5.78;;;5.18;;
47431;SDS011;33183;52.290;6.144;2023-01-25T11:40:33;6.00;;;5.03;;
47431;SDS011;33183;52.290;6.144;2023-01-25T11:43:12;6.22;;;5.63;;
47431;SDS011;33183;52.290;6.144;2023-01-25T11:51:21;5.53;;;4.72;;
47431;SDS011;33183;52.290;6.144;2023-01-25T11:54:05;5.82;;;5.20;;
47431;SDS011;33183;52.290;6.144;2023-01-25T11:56:58;6.00;;;5.40;;
47431;SDS011;33183;52.290;6.144;2023-01-25T12:10:55;6.28;;;5.03;;
47431;SDS011;33183;52.290;6.144;2023-01-25T12:16:22;5.65;;;5.10;;
47431;SDS011;33183;52.290;6.144;2023-01-25T12:29:31;6.43;;;5.82;;
47431;SDS011;33183;52.290;6.144;2023-01-25T12:34:47;5.50;;;4.97;;
47431;SDS011;33183;52.290;6.144;2023-01-25T12:39:56;6.35;;;5.75;;
47431;SDS011;33183;52.290;6.144;2023-01-25T12:42:34;7.07;;;6.38;;
47431;SDS011;33183;52.290;6.144;2023-01-25T12:45:12;6.03;;;5.43;;
47431;SDS011;33183;52.290;6.144;2023-01-25T12:50:19;6.57;;;5.72;;
47431;SDS011;33183;52.290;6.144;2023-01-25T12:52:54;6.10;;;5.50;;
47431;SDS011;33183;52.290;6.144;2023-01-25T12:55:22;6.03;;;5.43;;
47431;SDS011;33183;52.290;6.144;2023-01-25T12:57:57;8.25;;;5.90;;
47431;SDS011;33183;52.290;6.144;2023-01-25T13:03:27;6.13;;;5.53;;
47431;SDS011;33183;52.290;6.144;2023-01-25T13:08:52;6.13;;;5.53;;
47431;SDS011;33183;52.290;6.144;2023-01-25T13:11:38;6.72;;;6.07;;
47431;SDS011;33183;52.290;6.144;2023-01-25T13:16:40;5.55;;;5.05;;
47431;SDS011;33183;52.290;6.144;2023-01-25T13:19:17;5.88;;;5.38;;
47431;SDS011;33183;52.290;6.144;2023-01-25T13:21:43;6.25;;;5.65;;
47431;SDS011;33183;52.290;6.144;2023-01-25T13:24:11;6.35;;;5.70;;
47431;SDS011;33183;52.290;6.144;2023-01-25T13:26:47;6.53;;;5.78;;
47431;SDS011;33183;52.290;6.144;2023-01-25T13:31:57;6.70;;;6.00;;
47431;SDS011;33183;52.290;6.144;2023-01-25T13:37:24;7.47;;;6.15;;
47431;SDS011;33183;52.290;6.144;2023-01-25T13:42:19;6.50;;;5.90;;
47431;SDS011;33183;52.290;6.144;2023-01-25T13:44:52;6.18;;;5.57;;
47431;SDS011;33183;52.290;6.144;2023-01-25T13:47:20;6.63;;;5.88;;
47431;SDS011;33183;52.290;6.144;2023-01-25T13:52:19;7.45;;;5.63;;
47431;SDS011;33183;52.290;6.144;2023-01-25T13:54:47;9.18;;;6.97;;
47431;SDS011;33183;52.290;6.144;2023-01-25T13:57:21;7.90;;;7.07;;
47431;SDS011;33183;52.290;6.144;2023-01-25T13:59:56;7.88;;;6.82;;
47431;SDS011;33183;52.290;6.144;2023-01-25T14:02:23;9.27;;;7.53;;
47431;SDS011;33183;52.290;6.144;2023-01-25T14:04:49;9.45;;;7.90;;
47431;SDS011;33183;52.290;6.144;2023-01-25T14:07:16;10.02;;;8.75;;
47431;SDS011;33183;52.290;6.144;2023-01-25T14:09:42;11.90;;;9.40;;
47431;SDS011;33183;52.290;6.144;2023-01-25T14:12:08;9.88;;;8.80;;
47431;SDS011;33183;52.290;6.144;2023-01-25T14:14:35;11.88;;;8.27;;
47431;SDS011;33183;52.290;6.144;2023-01-25T14:17:17;10.70;;;9.40;;
47431;SDS011;33183;52.290;6.144;2023-01-25T14:19:47;10.63;;;8.75;;
47431;SDS011;33183;52.290;6.144;2023-01-25T14:25:02;10.32;;;8.13;;
47431;SDS011;33183;52.290;6.144;2023-01-25T14:30:28;10.05;;;8.80;;
47431;SDS011;33183;52.290;6.144;2023-01-25T14:32:56;10.95;;;8.80;;
47431;SDS011;33183;52.290;6.144;2023-01-25T14:37:55;12.82;;;9.27;;
47431;SDS011;33183;52.290;6.144;2023-01-25T14:40:21;12.70;;;9.30;;
47431;SDS011;33183;52.290;6.144;2023-01-25T14:42:47;10.15;;;9.05;;
47431;SDS011;33183;52.290;6.144;2023-01-25T14:45:14;12.15;;;10.00;;
47431;SDS011;33183;52.290;6.144;2023-01-25T14:47:39;11.02;;;9.63;;
47431;SDS011;33183;52.290;6.144;2023-01-25T14:52:56;13.48;;;10.35;;
47431;SDS011;33183;52.290;6.144;2023-01-25T14:55:23;13.38;;;10.75;;
47431;SDS011;33183;52.290;6.144;2023-01-25T14:57:48;12.20;;;10.35;;
47431;SDS011;33183;52.290;6.144;2023-01-25T15:00:24;12.85;;;11.23;;
47431;SDS011;33183;52.290;6.144;2023-01-25T15:03:00;13.27;;;11.90;;
47431;SDS011;33183;52.290;6.144;2023-01-25T15:05:27;15.07;;;12.20;;
47431;SDS011;33183;52.290;6.144;2023-01-25T15:15:30;14.75;;;11.75;;
47431;SDS011;33183;52.290;6.144;2023-01-25T15:17:57;15.25;;;12.70;;
47431;SDS011;33183;52.290;6.144;2023-01-25T15:20:34;18.60;;;13.45;;
47431;SDS011;33183;52.290;6.144;2023-01-25T15:28:19;19.65;;;14.93;;
47431;SDS011;33183;52.290;6.144;2023-01-25T15:30:45;19.77;;;15.38;;
47431;SDS011;33183;52.290;6.144;2023-01-25T15:33:18;18.58;;;14.52;;
47431;SDS011;33183;52.290;6.144;2023-01-25T15:35:47;17.83;;;14.60;;
47431;SDS011;33183;52.290;6.144;2023-01-25T15:38:13;20.23;;;15.05;;
47431;SDS011;33183;52.290;6.144;2023-01-25T15:40:39;19.40;;;14.35;;
47431;SDS011;33183;52.290;6.144;2023-01-25T15:43:08;19.10;;;13.85;;
47431;SDS011;33183;52.290;6.144;2023-01-25T15:45:34;18.15;;;14.73;;
47431;SDS011;33183;52.290;6.144;2023-01-25T15:48:00;16.73;;;13.27;;
47431;SDS011;33183;52.290;6.144;2023-01-25T15:50:25;18.35;;;14.60;;
47431;SDS011;33183;52.290;6.144;2023-01-25T15:52:50;19.17;;;14.30;;
47431;SDS011;33183;52.290;6.144;2023-01-25T15:55:15;19.30;;;14.27;;
47431;SDS011;33183;52.290;6.144;2023-01-25T15:57:41;19.90;;;14.55;;
47431;SDS011;33183;52.290;6.144;2023-01-25T16:00:14;18.45;;;13.95;;
47431;SDS011;33183;52.290;6.144;2023-01-25T16:02:40;17.55;;;13.32;;
47431;SDS011;33183;52.290;6.144;2023-01-25T16:05:06;17.05;;;14.20;;
47431;SDS011;33183;52.290;6.144;2023-01-25T16:07:31;17.40;;;13.70;;
47431;SDS011;33183;52.290;6.144;2023-01-25T16:09:57;18.40;;;15.13;;
47431;SDS011;33183;52.290;6.144;2023-01-25T16:12:22;16.10;;;13.20;;
47431;SDS011;33183;52.290;6.144;2023-01-25T16:14:49;18.33;;;13.30;;
47431;SDS011;33183;52.290;6.144;2023-01-25T16:17:15;18.30;;;14.23;;
47431;SDS011;33183;52.290;6.144;2023-01-25T16:19:42;19.08;;;14.35;;
47431;SDS011;33183;52.290;6.144;2023-01-25T16:22:10;16.73;;;13.68;;
47431;SDS011;33183;52.290;6.144;2023-01-25T16:24:35;15.35;;;12.63;;
47431;SDS011;33183;52.290;6.144;2023-01-25T16:27:01;17.70;;;13.40;;
47431;SDS011;33183;52.290;6.144;2023-01-25T16:29:26;17.85;;;13.18;;
47431;SDS011;33183;52.290;6.144;2023-01-25T16:31:52;16.88;;;13.63;;
47431;SDS011;33183;52.290;6.144;2023-01-25T16:34:18;19.05;;;14.38;;
47431;SDS011;33183;52.290;6.144;2023-01-25T16:36:44;22.13;;;15.60;;
47431;SDS011;33183;52.290;6.144;2023-01-25T16:39:14;19.45;;;15.27;;
47431;SDS011;33183;52.290;6.144;2023-01-25T16:41:44;19.92;;;15.68;;
47431;SDS011;33183;52.290;6.144;2023-01-25T16:44:09;25.05;;;15.50;;
47431;SDS011;33183;52.290;6.144;2023-01-25T16:46:35;21.58;;;15.43;;
47431;SDS011;33183;52.290;6.144;2023-01-25T16:49:00;17.10;;;14.18;;
47431;SDS011;33183;52.290;6.144;2023-01-25T16:51:28;16.67;;;13.85;;
47431;SDS011;33183;52.290;6.144;2023-01-25T16:53:55;17.80;;;14.15;;